createdAt,value
2017-07-14T00:00:02.073Z,92.50
2017-07-14T00:00:06.398Z,92.50
2017-07-14T00:00:10.641Z,92.50
2017-07-14T00:00:15.654Z,92.60
2017-07-14T00:00:19.906Z,92.50
2017-07-14T00:00:24.160Z,92.50
2017-07-14T00:00:28.405Z,92.50
2017-07-14T00:00:32.657Z,92.50
2017-07-14T00:00:36.900Z,92.50
2017-07-14T00:00:41.137Z,92.50
2017-07-14T00:00:45.369Z,92.50
2017-07-14T00:00:49.598Z,92.50
2017-07-14T00:00:53.838Z,92.50
2017-07-14T00:00:58.066Z,92.50
2017-07-14T00:01:02.293Z,92.50
2017-07-14T00:01:06.533Z,92.50
2017-07-14T00:01:10.776Z,92.50
2017-07-14T00:01:15.038Z,92.50
2017-07-14T00:01:19.279Z,92.50
2017-07-14T00:01:23.514Z,92.50
2017-07-14T00:01:27.759Z,92.50
2017-07-14T00:01:32.001Z,92.50
2017-07-14T00:01:36.229Z,92.70
2017-07-14T00:01:40.453Z,92.50
2017-07-14T00:01:44.729Z,92.60
2017-07-14T00:01:48.961Z,92.60
2017-07-14T00:01:53.190Z,92.50
2017-07-14T00:01:57.431Z,92.50
2017-07-14T00:02:01.661Z,92.50
2017-07-14T00:02:05.906Z,92.50
2017-07-14T00:02:10.154Z,92.50
2017-07-14T00:02:14.453Z,92.50
2017-07-14T00:02:18.706Z,92.60
2017-07-14T00:02:22.954Z,92.50
2017-07-14T00:02:27.199Z,92.50
2017-07-14T00:02:31.428Z,92.50
2017-07-14T00:02:35.662Z,92.50
2017-07-14T00:02:39.930Z,92.50
2017-07-14T00:02:44.158Z,92.50
2017-07-14T00:02:48.400Z,92.50
2017-07-14T00:02:52.642Z,92.50
2017-07-14T00:02:56.873Z,92.50
2017-07-14T00:03:01.110Z,92.50
2017-07-14T00:03:05.361Z,92.50
2017-07-14T00:03:09.602Z,92.50
2017-07-14T00:03:13.853Z,92.50
2017-07-14T00:03:18.105Z,92.50
2017-07-14T00:03:22.389Z,92.50
2017-07-14T00:03:26.621Z,92.50
2017-07-14T00:03:30.854Z,92.50
2017-07-14T00:03:35.113Z,92.50
2017-07-14T00:03:39.349Z,92.50
2017-07-14T00:03:43.588Z,92.50
2017-07-14T00:03:47.920Z,92.50
2017-07-14T00:03:53.477Z,92.50
2017-07-14T00:03:58.724Z,92.50
2017-07-14T00:04:02.963Z,92.50
2017-07-14T00:04:07.202Z,92.50
2017-07-14T00:04:11.446Z,92.60
2017-07-14T00:04:15.671Z,92.60
2017-07-14T00:04:19.905Z,92.60
2017-07-14T00:04:24.140Z,92.60
2017-07-14T00:04:28.385Z,92.60
2017-07-14T00:04:32.618Z,92.60
2017-07-14T00:04:36.878Z,92.60
2017-07-14T00:04:46.781Z,92.60
2017-07-14T00:04:51.025Z,92.60
2017-07-14T00:04:55.281Z,92.60
2017-07-14T00:04:59.553Z,92.60
2017-07-14T00:05:03.825Z,92.60
2017-07-14T00:05:08.082Z,92.60
2017-07-14T00:05:12.358Z,92.60
2017-07-14T00:05:16.628Z,92.60
2017-07-14T00:05:20.879Z,92.60
2017-07-14T00:05:25.140Z,92.60
2017-07-14T00:05:29.390Z,92.60
2017-07-14T00:05:33.625Z,92.60
2017-07-14T00:05:37.904Z,92.60
2017-07-14T00:05:42.120Z,92.60
2017-07-14T00:05:46.349Z,92.60
2017-07-14T00:05:50.590Z,92.60
2017-07-14T00:05:54.854Z,92.60
2017-07-14T00:05:59.085Z,92.60
2017-07-14T00:06:03.317Z,92.60
2017-07-14T00:06:07.570Z,92.50
2017-07-14T00:06:11.802Z,92.50
2017-07-14T00:06:16.037Z,92.60
2017-07-14T00:06:20.285Z,92.60
2017-07-14T00:06:24.534Z,92.60
2017-07-14T00:06:28.772Z,92.60
2017-07-14T00:06:33.020Z,92.60
2017-07-14T00:06:37.307Z,92.60
2017-07-14T00:06:41.556Z,92.60
2017-07-14T00:06:45.813Z,92.50
2017-07-14T00:06:50.035Z,92.50
2017-07-14T00:06:54.285Z,92.60
2017-07-14T00:06:58.534Z,92.50
2017-07-14T00:07:02.769Z,92.50
2017-07-14T00:07:07.006Z,92.50
2017-07-14T00:07:11.241Z,92.50
2017-07-14T00:07:15.480Z,92.50
2017-07-14T00:07:19.710Z,92.50
2017-07-14T00:07:23.951Z,92.50
2017-07-14T00:07:28.197Z,92.50
2017-07-14T00:07:32.438Z,92.50
2017-07-14T00:07:36.682Z,92.50
2017-07-14T00:07:40.917Z,92.50
2017-07-14T00:07:45.157Z,92.50
2017-07-14T00:07:49.461Z,92.50
2017-07-14T00:07:53.693Z,92.50
2017-07-14T00:07:57.944Z,92.50
2017-07-14T00:08:02.185Z,92.50
2017-07-14T00:08:06.426Z,92.50
2017-07-14T00:08:10.661Z,92.50
2017-07-14T00:08:14.967Z,92.50
2017-07-14T00:08:19.197Z,92.50
2017-07-14T00:08:23.422Z,92.40
2017-07-14T00:08:27.677Z,92.40
2017-07-14T00:08:31.908Z,92.50
2017-07-14T00:08:36.146Z,92.50
2017-07-14T00:08:40.391Z,92.40
2017-07-14T00:08:44.625Z,92.40
2017-07-14T00:08:48.926Z,92.40
2017-07-14T00:08:53.190Z,92.40
2017-07-14T00:08:57.454Z,92.40
2017-07-14T00:09:01.722Z,92.40
2017-07-14T00:09:05.993Z,92.50
2017-07-14T00:09:10.205Z,92.40
2017-07-14T00:09:14.433Z,92.70
2017-07-14T00:09:18.684Z,92.50
2017-07-14T00:09:22.954Z,92.40
2017-07-14T00:09:27.182Z,92.50
2017-07-14T00:09:31.417Z,92.50
2017-07-14T00:09:35.645Z,92.50
2017-07-14T00:09:40.652Z,92.40
2017-07-14T00:09:44.902Z,92.40
2017-07-14T00:09:49.142Z,92.50
2017-07-14T00:09:53.373Z,92.40
2017-07-14T00:09:57.617Z,92.40
2017-07-14T00:10:01.852Z,92.50
2017-07-14T00:10:06.118Z,92.50
2017-07-14T00:10:10.345Z,92.40
2017-07-14T00:10:14.594Z,92.50
2017-07-14T00:10:18.835Z,92.50
2017-07-14T00:10:23.112Z,92.50
2017-07-14T00:10:27.342Z,92.50
2017-07-14T00:10:31.591Z,92.50
2017-07-14T00:10:35.831Z,92.50
2017-07-14T00:10:40.110Z,92.50
2017-07-14T00:10:44.337Z,92.50
2017-07-14T00:10:48.610Z,92.50
2017-07-14T00:10:52.891Z,92.50
2017-07-14T00:10:57.142Z,92.50
2017-07-14T00:11:01.404Z,92.50
2017-07-14T00:11:05.657Z,92.50
2017-07-14T00:11:10.666Z,92.50
2017-07-14T00:11:14.928Z,92.50
2017-07-14T00:11:19.154Z,92.50
2017-07-14T00:11:23.422Z,92.50
2017-07-14T00:11:27.653Z,92.50
2017-07-14T00:11:31.897Z,92.50
2017-07-14T00:11:36.145Z,92.80
2017-07-14T00:11:40.377Z,92.50
2017-07-14T00:11:45.393Z,92.40
2017-07-14T00:11:49.663Z,92.40
2017-07-14T00:11:53.903Z,92.40
2017-07-14T00:11:58.909Z,92.40
2017-07-14T00:12:03.169Z,92.40
2017-07-14T00:12:07.432Z,92.40
2017-07-14T00:12:11.654Z,92.50
2017-07-14T00:12:15.874Z,92.50
2017-07-14T00:12:20.117Z,92.50
2017-07-14T00:12:25.121Z,92.50
2017-07-14T00:12:29.366Z,92.50
2017-07-14T00:12:33.606Z,92.40
2017-07-14T00:12:37.919Z,92.40
2017-07-14T00:12:42.192Z,92.40
2017-07-14T00:12:46.425Z,92.40
2017-07-14T00:12:51.447Z,92.60
2017-07-14T00:12:55.677Z,92.40
2017-07-14T00:12:59.918Z,92.50
2017-07-14T00:13:04.180Z,92.50
2017-07-14T00:13:08.441Z,92.50
2017-07-14T00:13:12.689Z,92.50
2017-07-14T00:13:16.942Z,92.50
2017-07-14T00:13:21.207Z,92.50
2017-07-14T00:13:25.437Z,92.50
2017-07-14T00:13:29.686Z,92.50
2017-07-14T00:13:33.921Z,92.50
2017-07-14T00:13:38.178Z,92.50
2017-07-14T00:13:42.442Z,92.50
2017-07-14T00:13:46.669Z,92.50
2017-07-14T00:13:50.914Z,92.50
2017-07-14T00:13:55.163Z,92.50
2017-07-14T00:14:00.154Z,92.50
2017-07-14T00:14:04.385Z,92.50
2017-07-14T00:14:08.627Z,92.50
2017-07-14T00:14:12.863Z,92.50
2017-07-14T00:14:17.089Z,92.50
2017-07-14T00:14:21.322Z,92.40
2017-07-14T00:14:25.565Z,92.40
2017-07-14T00:14:30.582Z,92.40
2017-07-14T00:14:35.585Z,92.40
2017-07-14T00:14:39.823Z,92.40
2017-07-14T00:14:44.083Z,92.40
2017-07-14T00:14:48.317Z,92.40
2017-07-14T00:14:52.565Z,92.40
2017-07-14T00:14:56.814Z,92.40
2017-07-14T00:15:01.817Z,92.40
2017-07-14T00:15:06.064Z,92.40
2017-07-14T00:15:10.293Z,92.40
2017-07-14T00:15:14.534Z,92.40
2017-07-14T00:15:18.774Z,92.40
2017-07-14T00:15:23.045Z,92.50
2017-07-14T00:15:27.286Z,92.70
2017-07-14T00:15:31.541Z,92.50
2017-07-14T00:15:35.777Z,92.50
2017-07-14T00:15:40.010Z,92.50
2017-07-14T00:15:44.246Z,92.50
2017-07-14T00:15:48.498Z,92.50
2017-07-14T00:15:52.744Z,92.50
2017-07-14T00:15:56.966Z,92.50
2017-07-14T00:16:01.210Z,92.50
2017-07-14T00:16:05.459Z,92.50
2017-07-14T00:16:10.535Z,92.50
2017-07-14T00:16:15.542Z,92.50
2017-07-14T00:16:19.785Z,92.50
2017-07-14T00:16:24.053Z,92.50
2017-07-14T00:16:29.067Z,92.90
2017-07-14T00:16:33.308Z,92.50
2017-07-14T00:16:37.532Z,92.50
2017-07-14T00:16:41.774Z,92.50
2017-07-14T00:16:46.776Z,92.50
2017-07-14T00:16:51.005Z,92.50
2017-07-14T00:16:55.244Z,92.50
2017-07-14T00:16:59.475Z,92.50
2017-07-14T00:17:03.701Z,92.50
2017-07-14T00:17:08.715Z,92.50
2017-07-14T00:17:13.727Z,92.50
2017-07-14T00:17:18.722Z,92.50
2017-07-14T00:17:22.992Z,92.50
2017-07-14T00:17:27.222Z,92.50
2017-07-14T00:17:31.465Z,92.70
2017-07-14T00:17:35.711Z,92.50
2017-07-14T00:17:39.950Z,92.50
2017-07-14T00:17:44.177Z,92.50
2017-07-14T00:17:48.424Z,92.50
2017-07-14T00:17:52.656Z,92.50
2017-07-14T00:17:57.656Z,92.50
2017-07-14T00:18:02.664Z,92.70
2017-07-14T00:18:06.902Z,92.50
2017-07-14T00:18:11.153Z,92.50
2017-07-14T00:18:15.381Z,92.50
2017-07-14T00:18:19.625Z,92.50
2017-07-14T00:18:23.882Z,92.60
2017-07-14T00:18:28.889Z,92.60
2017-07-14T00:18:33.902Z,92.80
2017-07-14T00:18:38.129Z,92.60
2017-07-14T00:18:42.377Z,92.60
2017-07-14T00:18:46.597Z,92.60
2017-07-14T00:18:50.837Z,92.60
2017-07-14T00:18:55.080Z,92.60
2017-07-14T00:18:59.318Z,92.60
2017-07-14T00:19:04.314Z,92.60
2017-07-14T00:19:08.558Z,92.80
2017-07-14T00:19:12.790Z,92.50
2017-07-14T00:19:17.029Z,92.50
2017-07-14T00:19:22.055Z,92.50
2017-07-14T00:19:27.049Z,92.50
2017-07-14T00:19:31.299Z,92.50
2017-07-14T00:19:35.703Z,92.50
2017-07-14T00:19:39.950Z,92.60
2017-07-14T00:19:44.274Z,92.60
2017-07-14T00:19:48.542Z,92.60
2017-07-14T00:19:52.970Z,92.60
2017-07-14T00:19:57.202Z,92.60
2017-07-14T00:20:01.445Z,92.60
2017-07-14T00:20:05.685Z,92.60
2017-07-14T00:20:09.929Z,92.60
2017-07-14T00:20:14.169Z,92.60
2017-07-14T00:20:19.182Z,92.60
2017-07-14T00:20:24.202Z,92.80
2017-07-14T00:20:28.442Z,92.60
2017-07-14T00:20:32.682Z,92.60
2017-07-14T00:20:36.946Z,92.60
2017-07-14T00:20:41.189Z,92.60
2017-07-14T00:20:45.425Z,92.90
2017-07-14T00:20:49.701Z,92.70
2017-07-14T00:20:54.705Z,92.90
2017-07-14T00:20:58.946Z,92.70
2017-07-14T00:21:03.190Z,92.60
2017-07-14T00:21:07.425Z,92.70
2017-07-14T00:21:12.436Z,92.70
2017-07-14T00:21:16.677Z,92.70
2017-07-14T00:21:20.906Z,92.70
2017-07-14T00:21:25.146Z,92.70
2017-07-14T00:21:30.179Z,92.70
2017-07-14T00:21:34.415Z,92.70
2017-07-14T00:21:38.645Z,92.70
2017-07-14T00:21:42.905Z,92.70
2017-07-14T00:21:47.141Z,92.70
2017-07-14T00:21:51.373Z,92.70
2017-07-14T00:21:55.636Z,92.70
2017-07-14T00:21:59.853Z,92.70
2017-07-14T00:22:04.849Z,93.00
2017-07-14T00:22:09.089Z,92.80
2017-07-14T00:22:13.333Z,92.80
2017-07-14T00:22:17.914Z,92.80
2017-07-14T00:22:22.149Z,92.80
2017-07-14T00:22:26.381Z,92.80
2017-07-14T00:22:31.399Z,92.90
2017-07-14T00:22:35.674Z,92.90
2017-07-14T00:22:39.929Z,92.90
2017-07-14T00:22:44.234Z,92.90
2017-07-14T00:22:48.498Z,92.90
2017-07-14T00:22:52.764Z,92.80
2017-07-14T00:22:56.990Z,92.80
2017-07-14T00:23:02.005Z,92.90
2017-07-14T00:23:06.237Z,92.90
2017-07-14T00:23:10.473Z,92.90
2017-07-14T00:23:14.713Z,92.90
2017-07-14T00:23:19.732Z,93.00
2017-07-14T00:23:23.957Z,92.80
2017-07-14T00:23:28.189Z,92.90
2017-07-14T00:23:32.455Z,92.80
2017-07-14T00:23:36.705Z,92.80
2017-07-14T00:23:40.937Z,92.90
2017-07-14T00:23:45.937Z,92.90
2017-07-14T00:23:50.173Z,92.90
2017-07-14T00:23:54.426Z,92.90
2017-07-14T00:23:58.656Z,92.90
2017-07-14T00:24:02.913Z,92.90
2017-07-14T00:24:07.161Z,92.90
2017-07-14T00:24:11.425Z,92.90
2017-07-14T00:24:15.658Z,92.90
2017-07-14T00:24:20.670Z,93.00
2017-07-14T00:24:25.662Z,93.00
2017-07-14T00:24:29.903Z,93.00
2017-07-14T00:24:34.154Z,93.00
2017-07-14T00:24:38.401Z,93.00
2017-07-14T00:24:43.405Z,93.00
2017-07-14T00:24:48.410Z,93.20
2017-07-14T00:24:52.673Z,93.00
2017-07-14T00:24:56.894Z,93.00
2017-07-14T00:25:01.146Z,93.30
2017-07-14T00:25:05.418Z,93.00
2017-07-14T00:25:09.659Z,93.10
2017-07-14T00:25:13.881Z,93.10
2017-07-14T00:25:18.114Z,93.10
2017-07-14T00:25:22.381Z,93.10
2017-07-14T00:25:26.597Z,93.10
2017-07-14T00:25:30.841Z,93.10
2017-07-14T00:25:35.086Z,93.10
2017-07-14T00:25:39.326Z,93.10
2017-07-14T00:25:44.337Z,93.20
2017-07-14T00:25:49.350Z,93.20
2017-07-14T00:25:53.613Z,93.20
2017-07-14T00:25:57.854Z,93.20
2017-07-14T00:26:02.859Z,93.20
2017-07-14T00:26:07.094Z,93.20
2017-07-14T00:26:11.329Z,93.20
2017-07-14T00:26:15.562Z,93.20
2017-07-14T00:26:19.790Z,93.20
2017-07-14T00:26:24.037Z,93.20
2017-07-14T00:26:28.274Z,93.20
2017-07-14T00:26:32.506Z,93.30
2017-07-14T00:26:36.741Z,93.30
2017-07-14T00:26:40.985Z,93.50
2017-07-14T00:26:45.235Z,93.30
2017-07-14T00:26:49.458Z,93.30
2017-07-14T00:26:53.702Z,93.20
2017-07-14T00:26:57.950Z,93.30
2017-07-14T00:27:02.186Z,93.30
2017-07-14T00:27:06.441Z,93.40
2017-07-14T00:27:10.696Z,93.40
2017-07-14T00:27:14.942Z,93.40
2017-07-14T00:27:19.180Z,93.30
2017-07-14T00:27:24.189Z,93.70
2017-07-14T00:27:28.440Z,93.40
2017-07-14T00:27:32.677Z,93.40
2017-07-14T00:27:36.938Z,93.40
2017-07-14T00:27:41.173Z,93.40
2017-07-14T00:27:45.398Z,93.40
2017-07-14T00:27:49.714Z,93.40
2017-07-14T00:27:53.942Z,93.50
2017-07-14T00:27:58.201Z,93.50
2017-07-14T00:28:02.477Z,93.50
2017-07-14T00:28:07.503Z,93.60
2017-07-14T00:28:11.753Z,93.70
2017-07-14T00:28:15.990Z,93.50
2017-07-14T00:28:20.230Z,93.50
2017-07-14T00:28:24.477Z,93.50
2017-07-14T00:28:28.738Z,93.50
2017-07-14T00:28:32.985Z,93.50
2017-07-14T00:28:37.216Z,93.50
2017-07-14T00:28:42.214Z,93.50
2017-07-14T00:28:46.458Z,93.50
2017-07-14T00:28:50.697Z,93.50
2017-07-14T00:28:54.931Z,93.50
2017-07-14T00:28:59.925Z,93.60
2017-07-14T00:29:04.155Z,93.60
2017-07-14T00:29:09.161Z,93.60
2017-07-14T00:29:14.180Z,93.60
2017-07-14T00:29:19.190Z,93.60
2017-07-14T00:29:23.482Z,93.60
2017-07-14T00:29:27.730Z,93.60
2017-07-14T00:29:31.980Z,93.60
2017-07-14T00:29:36.230Z,93.60
2017-07-14T00:29:40.465Z,93.60
2017-07-14T00:29:44.698Z,93.60
2017-07-14T00:29:48.930Z,93.60
2017-07-14T00:29:53.272Z,93.60
2017-07-14T00:29:57.503Z,93.60
2017-07-14T00:30:01.758Z,93.60
2017-07-14T00:30:06.037Z,93.60
2017-07-14T00:30:10.279Z,93.60
2017-07-14T00:30:14.517Z,93.70
2017-07-14T00:30:18.763Z,93.60
2017-07-14T00:30:22.989Z,93.60
2017-07-14T00:30:28.009Z,93.70
2017-07-14T00:30:33.021Z,93.60
2017-07-14T00:30:37.261Z,93.70
2017-07-14T00:30:41.501Z,93.70
2017-07-14T00:30:45.745Z,93.80
2017-07-14T00:30:50.741Z,93.80
2017-07-14T00:30:55.014Z,93.80
2017-07-14T00:30:59.258Z,93.90
2017-07-14T00:31:04.268Z,93.90
2017-07-14T00:31:09.266Z,94.20
2017-07-14T00:31:13.513Z,93.90
2017-07-14T00:31:17.757Z,93.90
2017-07-14T00:31:21.994Z,93.90
2017-07-14T00:31:26.238Z,93.90
2017-07-14T00:31:30.494Z,93.90
2017-07-14T00:31:35.495Z,93.90
2017-07-14T00:31:39.737Z,93.90
2017-07-14T00:31:43.989Z,93.90
2017-07-14T00:31:48.221Z,93.90
2017-07-14T00:31:52.467Z,93.90
2017-07-14T00:31:56.725Z,93.90
2017-07-14T00:32:01.077Z,93.90
2017-07-14T00:32:05.309Z,93.90
2017-07-14T00:32:10.325Z,93.90
2017-07-14T00:32:14.541Z,93.90
2017-07-14T00:32:18.794Z,93.90
2017-07-14T00:32:23.074Z,94.20
2017-07-14T00:32:27.341Z,93.90
2017-07-14T00:32:32.317Z,94.00
2017-07-14T00:32:36.570Z,94.00
2017-07-14T00:32:40.822Z,93.90
2017-07-14T00:32:45.066Z,93.90
2017-07-14T00:32:49.305Z,93.90
2017-07-14T00:32:53.595Z,93.90
2017-07-14T00:32:57.835Z,93.90
2017-07-14T00:33:02.833Z,94.20
2017-07-14T00:33:07.069Z,94.00
2017-07-14T00:33:12.074Z,94.00
2017-07-14T00:33:17.071Z,94.20
2017-07-14T00:33:21.310Z,94.00
2017-07-14T00:33:25.557Z,94.00
2017-07-14T00:33:29.808Z,94.00
2017-07-14T00:33:34.034Z,94.00
2017-07-14T00:33:38.269Z,94.10
2017-07-14T00:33:42.513Z,94.30
2017-07-14T00:33:46.749Z,94.10
2017-07-14T00:33:50.985Z,94.10
2017-07-14T00:33:55.217Z,94.10
2017-07-14T00:33:59.457Z,94.10
2017-07-14T00:34:03.699Z,94.10
2017-07-14T00:34:07.938Z,94.00
2017-07-14T00:34:12.173Z,94.00
2017-07-14T00:34:16.409Z,94.00
2017-07-14T00:34:20.645Z,94.00
2017-07-14T00:34:24.893Z,94.00
2017-07-14T00:34:29.138Z,94.00
2017-07-14T00:34:33.393Z,94.00
2017-07-14T00:34:38.418Z,94.10
2017-07-14T00:34:42.669Z,94.10
2017-07-14T00:34:46.896Z,94.10
2017-07-14T00:34:51.161Z,94.10
2017-07-14T00:34:55.393Z,94.10
2017-07-14T00:34:59.625Z,94.10
2017-07-14T00:35:03.867Z,94.40
2017-07-14T00:35:08.138Z,94.10
2017-07-14T00:35:12.374Z,94.10
2017-07-14T00:35:16.606Z,94.10
2017-07-14T00:35:21.610Z,94.10
2017-07-14T00:35:25.845Z,94.10
2017-07-14T00:35:30.095Z,94.10
2017-07-14T00:35:34.358Z,94.10
2017-07-14T00:35:38.597Z,94.20
2017-07-14T00:35:42.838Z,94.10
2017-07-14T00:35:47.083Z,94.10
2017-07-14T00:35:51.343Z,94.10
2017-07-14T00:35:55.591Z,94.10
2017-07-14T00:35:59.846Z,94.10
2017-07-14T00:36:04.106Z,94.10
2017-07-14T00:36:08.334Z,94.10
2017-07-14T00:36:13.337Z,94.20
2017-07-14T00:36:18.355Z,94.00
2017-07-14T00:36:22.582Z,94.20
2017-07-14T00:36:26.823Z,94.20
2017-07-14T00:36:31.059Z,94.20
2017-07-14T00:36:36.070Z,94.20
2017-07-14T00:36:41.078Z,94.20
2017-07-14T00:36:45.313Z,94.20
2017-07-14T00:36:49.550Z,94.20
2017-07-14T00:36:53.826Z,94.20
2017-07-14T00:36:58.045Z,94.20
2017-07-14T00:37:02.285Z,94.20
2017-07-14T00:37:06.529Z,94.20
2017-07-14T00:37:10.779Z,94.20
2017-07-14T00:37:15.013Z,94.20
2017-07-14T00:37:19.243Z,94.20
2017-07-14T00:37:23.543Z,94.20
2017-07-14T00:37:27.774Z,94.20
2017-07-14T00:37:32.009Z,94.20
2017-07-14T00:37:36.264Z,94.20
2017-07-14T00:37:40.517Z,94.20
2017-07-14T00:37:44.783Z,94.20
2017-07-14T00:37:48.997Z,94.20
2017-07-14T00:37:53.998Z,94.10
2017-07-14T00:37:58.246Z,94.10
2017-07-14T00:38:02.490Z,94.10
2017-07-14T00:38:06.729Z,94.10
2017-07-14T00:38:10.957Z,94.10
2017-07-14T00:38:15.204Z,94.20
2017-07-14T00:38:19.440Z,94.20
2017-07-14T00:38:23.674Z,94.20
2017-07-14T00:38:27.921Z,94.20
2017-07-14T00:38:32.154Z,94.20
2017-07-14T00:38:36.425Z,94.20
2017-07-14T00:38:40.666Z,94.20
2017-07-14T00:38:44.897Z,94.20
2017-07-14T00:38:49.143Z,94.10
2017-07-14T00:38:53.383Z,94.10
2017-07-14T00:38:57.638Z,94.10
2017-07-14T00:39:01.869Z,94.10
2017-07-14T00:39:06.121Z,94.10
2017-07-14T00:39:10.364Z,94.10
2017-07-14T00:39:14.593Z,94.10
2017-07-14T00:39:18.825Z,94.00
2017-07-14T00:39:23.081Z,94.00
2017-07-14T00:39:27.313Z,94.00
2017-07-14T00:39:32.324Z,93.90
2017-07-14T00:39:37.333Z,93.90
2017-07-14T00:39:42.365Z,94.00
2017-07-14T00:39:46.601Z,94.00
2017-07-14T00:39:50.849Z,93.90
2017-07-14T00:39:55.098Z,93.90
2017-07-14T00:39:59.370Z,93.90
2017-07-14T00:40:04.382Z,93.90
2017-07-14T00:40:08.618Z,93.90
2017-07-14T00:40:12.861Z,93.90
2017-07-14T00:40:17.089Z,93.90
2017-07-14T00:40:21.350Z,93.90
2017-07-14T00:40:25.578Z,93.90
2017-07-14T00:40:30.579Z,93.90
2017-07-14T00:40:34.817Z,93.90
2017-07-14T00:40:39.072Z,93.90
2017-07-14T00:40:43.301Z,93.90
2017-07-14T00:40:48.297Z,93.90
2017-07-14T00:40:52.525Z,93.90
2017-07-14T00:40:56.770Z,93.90
2017-07-14T00:41:01.018Z,93.90
2017-07-14T00:41:06.042Z,94.10
2017-07-14T00:41:10.288Z,93.90
2017-07-14T00:41:14.538Z,93.90
2017-07-14T00:41:18.822Z,93.90
2017-07-14T00:41:23.067Z,93.90
2017-07-14T00:41:27.329Z,93.90
2017-07-14T00:41:31.576Z,93.90
2017-07-14T00:41:35.810Z,93.80
2017-07-14T00:41:40.042Z,93.80
2017-07-14T00:41:44.293Z,93.80
2017-07-14T00:41:48.530Z,93.80
2017-07-14T00:41:53.561Z,93.80
2017-07-14T00:41:58.573Z,93.80
2017-07-14T00:42:03.574Z,93.80
2017-07-14T00:42:07.827Z,93.80
2017-07-14T00:42:12.058Z,93.80
2017-07-14T00:42:16.293Z,93.80
2017-07-14T00:42:21.298Z,93.80
2017-07-14T00:42:26.306Z,93.90
2017-07-14T00:42:30.541Z,93.80
2017-07-14T00:42:34.790Z,93.80
2017-07-14T00:42:39.069Z,93.80
2017-07-14T00:42:43.331Z,93.80
2017-07-14T00:42:47.578Z,93.80
2017-07-14T00:42:51.818Z,93.80
2017-07-14T00:42:56.090Z,93.80
2017-07-14T00:43:00.342Z,94.10
2017-07-14T00:43:04.570Z,93.80
2017-07-14T00:43:08.827Z,93.80
2017-07-14T00:43:13.825Z,93.80
2017-07-14T00:43:18.054Z,93.80
2017-07-14T00:43:22.290Z,93.80
2017-07-14T00:43:26.538Z,93.80
2017-07-14T00:43:31.549Z,93.70
2017-07-14T00:43:36.570Z,93.80
2017-07-14T00:43:40.784Z,93.80
2017-07-14T00:43:45.040Z,93.80
2017-07-14T00:43:49.283Z,93.80
2017-07-14T00:43:54.278Z,93.80
2017-07-14T00:43:58.518Z,93.80
2017-07-14T00:44:03.578Z,93.80
2017-07-14T00:44:07.840Z,93.80
2017-07-14T00:44:12.100Z,93.80
2017-07-14T00:44:16.359Z,93.80
2017-07-14T00:44:20.594Z,93.80
2017-07-14T00:44:24.841Z,93.80
2017-07-14T00:44:29.089Z,93.80
2017-07-14T00:44:33.324Z,93.80
2017-07-14T00:44:37.553Z,93.80
2017-07-14T00:44:41.806Z,93.80
2017-07-14T00:44:46.813Z,93.80
2017-07-14T00:44:51.051Z,93.80
2017-07-14T00:44:55.306Z,93.80
2017-07-14T00:44:59.533Z,93.80
2017-07-14T00:45:03.777Z,93.80
2017-07-14T00:45:08.047Z,93.80
2017-07-14T00:45:12.279Z,93.80
2017-07-14T00:45:16.509Z,93.80
2017-07-14T00:45:20.753Z,93.80
2017-07-14T00:45:24.977Z,93.80
2017-07-14T00:45:29.209Z,93.80
2017-07-14T00:45:33.461Z,93.80
2017-07-14T00:45:37.713Z,93.80
2017-07-14T00:45:42.734Z,93.90
2017-07-14T00:45:47.018Z,93.90
2017-07-14T00:45:51.302Z,93.90
2017-07-14T00:45:55.552Z,93.90
2017-07-14T00:46:00.565Z,94.00
2017-07-14T00:46:05.570Z,93.90
2017-07-14T00:46:10.588Z,93.90
2017-07-14T00:46:14.837Z,93.90
2017-07-14T00:46:19.066Z,93.90
2017-07-14T00:46:23.337Z,93.90
2017-07-14T00:46:27.566Z,93.90
2017-07-14T00:46:31.793Z,93.90
2017-07-14T00:46:36.031Z,93.90
2017-07-14T00:46:40.281Z,93.90
2017-07-14T00:46:44.534Z,93.90
2017-07-14T00:46:48.781Z,93.90
2017-07-14T00:46:53.034Z,94.00
2017-07-14T00:46:57.281Z,94.00
2017-07-14T00:47:01.524Z,94.00
2017-07-14T00:47:05.766Z,94.00
2017-07-14T00:47:10.021Z,94.00
2017-07-14T00:47:14.262Z,94.00
2017-07-14T00:47:18.494Z,94.00
2017-07-14T00:47:23.512Z,94.30
2017-07-14T00:47:28.529Z,94.20
2017-07-14T00:47:33.529Z,94.10
2017-07-14T00:47:37.779Z,94.00
2017-07-14T00:47:42.029Z,94.00
2017-07-14T00:47:46.269Z,94.00
2017-07-14T00:47:50.513Z,94.00
2017-07-14T00:47:54.811Z,94.00
2017-07-14T00:47:59.065Z,94.00
2017-07-14T00:48:03.312Z,94.00
2017-07-14T00:48:07.541Z,94.00
2017-07-14T00:48:11.785Z,94.00
2017-07-14T00:48:16.026Z,94.00
2017-07-14T00:48:20.265Z,94.00
2017-07-14T00:48:24.494Z,94.00
2017-07-14T00:48:28.721Z,94.00
2017-07-14T00:48:32.989Z,94.00
2017-07-14T00:48:37.214Z,94.00
2017-07-14T00:48:41.454Z,94.00
2017-07-14T00:48:46.462Z,94.00
2017-07-14T00:48:50.681Z,94.00
2017-07-14T00:48:54.953Z,94.00
2017-07-14T00:48:59.186Z,94.00
2017-07-14T00:49:03.426Z,94.00
2017-07-14T00:49:07.671Z,94.00
2017-07-14T00:49:11.949Z,94.00
2017-07-14T00:49:16.185Z,94.00
2017-07-14T00:49:20.423Z,94.00
2017-07-14T00:49:24.667Z,94.00
2017-07-14T00:49:29.663Z,94.00
2017-07-14T00:49:33.910Z,94.00
2017-07-14T00:49:38.153Z,94.00
2017-07-14T00:49:42.417Z,94.00
2017-07-14T00:49:46.704Z,94.00
2017-07-14T00:49:51.704Z,94.00
2017-07-14T00:49:56.723Z,94.00
2017-07-14T00:50:01.776Z,94.00
2017-07-14T00:50:06.007Z,94.00
2017-07-14T00:50:10.275Z,94.00
2017-07-14T00:50:14.537Z,94.10
2017-07-14T00:50:18.786Z,94.10
2017-07-14T00:50:23.005Z,94.10
2017-07-14T00:50:27.293Z,94.10
2017-07-14T00:50:31.549Z,94.10
2017-07-14T00:50:35.798Z,94.10
2017-07-14T00:50:40.032Z,94.10
2017-07-14T00:50:45.032Z,94.30
2017-07-14T00:50:49.277Z,94.10
2017-07-14T00:50:53.560Z,94.10
2017-07-14T00:50:58.569Z,94.10
2017-07-14T00:51:02.838Z,94.10
2017-07-14T00:51:07.069Z,94.10
2017-07-14T00:51:12.069Z,94.10
2017-07-14T00:51:16.309Z,94.20
2017-07-14T00:51:20.556Z,94.20
2017-07-14T00:51:24.781Z,94.20
2017-07-14T00:51:29.034Z,94.20
2017-07-14T00:51:33.280Z,94.20
2017-07-14T00:51:37.526Z,94.20
2017-07-14T00:51:41.782Z,94.20
2017-07-14T00:51:46.022Z,94.30
2017-07-14T00:51:50.259Z,94.30
2017-07-14T00:51:54.498Z,94.30
2017-07-14T00:51:59.498Z,94.30
2017-07-14T00:52:04.377Z,94.30
2017-07-14T00:52:08.637Z,94.30
2017-07-14T00:52:12.874Z,94.30
2017-07-14T00:52:17.233Z,94.40
2017-07-14T00:52:22.234Z,94.40
2017-07-14T00:52:26.461Z,94.40
2017-07-14T00:52:30.730Z,94.40
2017-07-14T00:52:34.971Z,94.40
2017-07-14T00:52:39.208Z,94.40
2017-07-14T00:52:43.449Z,94.40
2017-07-14T00:52:48.458Z,94.50
2017-07-14T00:52:52.746Z,94.40
2017-07-14T00:52:57.000Z,94.40
2017-07-14T00:53:01.241Z,94.40
2017-07-14T00:53:05.476Z,94.40
2017-07-14T00:53:09.718Z,94.40
2017-07-14T00:53:13.959Z,94.40
2017-07-14T00:53:18.986Z,94.40
2017-07-14T00:53:24.026Z,94.40
2017-07-14T00:53:28.249Z,94.40
2017-07-14T00:53:32.492Z,94.40
2017-07-14T00:53:37.494Z,94.40
2017-07-14T00:53:41.717Z,94.50
2017-07-14T00:53:46.729Z,94.50
2017-07-14T00:53:51.756Z,94.50
2017-07-14T00:53:56.776Z,94.50
2017-07-14T00:54:01.043Z,94.50
2017-07-14T00:54:05.283Z,94.50
2017-07-14T00:54:10.283Z,94.50
2017-07-14T00:54:15.290Z,94.80
2017-07-14T00:54:19.525Z,94.50
2017-07-14T00:54:23.777Z,94.50
2017-07-14T00:54:28.046Z,94.50
2017-07-14T00:54:32.249Z,94.60
2017-07-14T00:54:36.492Z,94.50
2017-07-14T00:54:41.513Z,94.60
2017-07-14T00:54:46.524Z,94.90
2017-07-14T00:54:50.750Z,94.50
2017-07-14T00:54:55.745Z,94.60
2017-07-14T00:54:59.982Z,94.60
2017-07-14T00:55:04.207Z,94.60
2017-07-14T00:55:08.445Z,94.50
2017-07-14T00:55:13.507Z,94.60
2017-07-14T00:55:17.745Z,94.60
2017-07-14T00:55:21.994Z,94.60
2017-07-14T00:55:26.225Z,94.60
2017-07-14T00:55:30.480Z,94.60
2017-07-14T00:55:35.496Z,94.60
2017-07-14T00:55:40.530Z,94.50
2017-07-14T00:55:44.762Z,94.50
2017-07-14T00:55:48.994Z,94.50
2017-07-14T00:55:53.238Z,94.50
2017-07-14T00:55:57.477Z,94.50
2017-07-14T00:56:01.705Z,94.50
2017-07-14T00:56:05.938Z,94.50
2017-07-14T00:56:10.229Z,94.50
2017-07-14T00:56:16.540Z,94.50
2017-07-14T00:56:20.922Z,94.50